createdAt,value
2022-08-17T00:01:52.171Z,4.20
2022-08-17T00:04:21.267Z,3.90
2022-08-17T00:06:49.903Z,4.37
2022-08-17T00:09:18.904Z,4.43
2022-08-17T00:12:34.831Z,4.18
2022-08-17T00:14:35.667Z,4.43
2022-08-17T00:17:02.376Z,4.63
2022-08-17T00:19:29.454Z,4.30
2022-08-17T00:22:31.938Z,4.15
2022-08-17T00:24:47.079Z,4.63
2022-08-17T00:27:13.725Z,4.78
2022-08-17T00:29:40.519Z,4.28
2022-08-17T00:33:11.985Z,4.50
2022-08-17T00:34:54.382Z,4.47
2022-08-17T00:37:22.813Z,4.00
2022-08-17T00:39:51.611Z,4.32
2022-08-17T00:42:19.599Z,3.92
2022-08-17T00:44:50.583Z,4.13
2022-08-17T00:47:24.657Z,4.68
2022-08-17T00:49:51.552Z,4.10
2022-08-17T00:52:22.429Z,4.43
2022-08-17T00:54:54.695Z,4.30
2022-08-17T00:57:24.913Z,3.63
2022-08-17T01:00:02.520Z,4.38
2022-08-17T01:02:35.010Z,4.10
2022-08-17T01:05:17.169Z,4.38
2022-08-17T01:07:47.721Z,4.05
2022-08-17T01:10:59.224Z,4.00
2022-08-17T01:13:08.012Z,3.80
2022-08-17T01:15:40.027Z,4.13
2022-08-17T01:18:09.913Z,4.05
2022-08-17T01:20:48.604Z,4.13
2022-08-17T01:23:20.770Z,4.13
2022-08-17T01:25:49.867Z,3.72
2022-08-17T01:28:33.330Z,4.18
2022-08-17T01:31:07.009Z,3.58
2022-08-17T01:33:34.397Z,4.00
2022-08-17T01:36:00.994Z,3.90
2022-08-17T01:38:29.024Z,4.38
2022-08-17T01:41:00.447Z,3.67
2022-08-17T01:43:31.199Z,3.97
2022-08-17T01:46:02.728Z,3.70
2022-08-17T01:48:36.489Z,3.90
2022-08-17T01:51:03.448Z,3.63
2022-08-17T01:53:35.373Z,3.47
2022-08-17T01:56:07.839Z,3.88
2022-08-17T01:58:36.001Z,3.67
2022-08-17T02:01:04.599Z,4.10
2022-08-17T02:03:35.499Z,3.65
2022-08-17T02:06:05.787Z,3.45
2022-08-17T02:09:01.483Z,3.53
2022-08-17T02:11:31.594Z,4.03
2022-08-17T02:14:03.328Z,4.10
2022-08-17T02:16:37.652Z,3.65
2022-08-17T02:19:06.603Z,4.07
2022-08-17T02:21:33.324Z,4.07
2022-08-17T02:24:01.768Z,3.90
2022-08-17T02:26:28.525Z,3.90
2022-08-17T02:28:55.385Z,4.13
2022-08-17T02:31:22.070Z,3.85
2022-08-17T02:34:04.005Z,3.45
2022-08-17T02:36:32.220Z,3.70
2022-08-17T02:39:01.681Z,3.57
2022-08-17T02:41:28.431Z,4.00
2022-08-17T02:43:55.040Z,4.00
2022-08-17T02:46:21.693Z,3.50
2022-08-17T02:48:48.493Z,4.10
2022-08-17T02:51:15.169Z,4.03
2022-08-17T02:53:42.281Z,3.85
2022-08-17T02:56:10.560Z,3.90
2022-08-17T02:58:38.546Z,3.72
2022-08-17T03:01:06.427Z,3.83
2022-08-17T03:03:34.650Z,3.80
2022-08-17T03:06:01.590Z,4.10
2022-08-17T03:08:28.895Z,3.60
2022-08-17T03:10:55.732Z,3.22
2022-08-17T03:13:23.989Z,3.50
2022-08-17T03:15:50.746Z,3.40
2022-08-17T03:18:25.051Z,3.50
2022-08-17T03:20:54.542Z,3.70
2022-08-17T03:23:24.396Z,3.90
2022-08-17T03:25:53.249Z,3.50
2022-08-17T03:28:24.373Z,3.67
2022-08-17T03:30:51.744Z,3.25
2022-08-17T03:33:19.402Z,3.45
2022-08-17T03:35:46.912Z,3.70
2022-08-17T03:38:15.181Z,3.42
2022-08-17T03:40:57.160Z,3.20
2022-08-17T03:43:30.432Z,2.92
2022-08-17T03:45:57.735Z,3.60
2022-08-17T03:48:25.223Z,3.50
2022-08-17T03:50:52.501Z,3.72
2022-08-17T03:53:19.239Z,3.30
2022-08-17T03:55:45.937Z,3.50
2022-08-17T03:58:12.599Z,3.47
2022-08-17T04:00:40.679Z,3.47
2022-08-17T04:03:09.085Z,3.50
2022-08-17T04:05:35.827Z,3.10
2022-08-17T04:08:02.740Z,3.15
2022-08-17T04:10:34.013Z,3.33
2022-08-17T04:13:08.132Z,3.38
2022-08-17T04:15:34.738Z,3.35
2022-08-17T04:18:02.783Z,3.60
2022-08-17T04:20:29.587Z,3.20
2022-08-17T04:22:58.806Z,3.58
2022-08-17T04:25:26.343Z,3.08
2022-08-17T04:27:54.598Z,3.15
2022-08-17T04:30:23.288Z,3.37
2022-08-17T04:33:05.050Z,3.13
2022-08-17T04:35:37.364Z,3.30
2022-08-17T04:38:05.217Z,3.05
2022-08-17T04:40:32.625Z,3.15
2022-08-17T04:43:04.370Z,2.80
2022-08-17T04:45:32.413Z,3.17
2022-08-17T04:48:00.504Z,3.20
2022-08-17T04:50:27.210Z,3.05
2022-08-17T04:53:05.821Z,3.10
2022-08-17T04:55:53.420Z,3.33
2022-08-17T04:58:23.277Z,3.10
2022-08-17T05:00:49.959Z,3.63
2022-08-17T05:03:16.575Z,3.15
2022-08-17T05:05:45.290Z,3.08
2022-08-17T05:08:17.607Z,3.20
2022-08-17T05:10:45.494Z,3.17
2022-08-17T05:13:14.433Z,3.20
2022-08-17T05:15:44.826Z,3.20
2022-08-17T05:18:13.084Z,3.70
2022-08-17T05:20:40.698Z,3.20
2022-08-17T05:23:09.388Z,3.33
2022-08-17T05:25:42.287Z,3.00
2022-08-17T05:28:15.038Z,3.40
2022-08-17T05:30:44.008Z,3.20
2022-08-17T05:33:13.023Z,3.27
2022-08-17T05:35:46.040Z,3.30
2022-08-17T05:38:13.216Z,3.17
2022-08-17T05:40:43.708Z,3.13
2022-08-17T05:43:12.573Z,3.30
2022-08-17T05:45:54.351Z,3.07
2022-08-17T05:48:35.495Z,3.30
2022-08-17T05:51:28.029Z,3.58
2022-08-17T05:54:15.757Z,3.05
2022-08-17T05:57:08.500Z,2.95
2022-08-17T05:59:46.153Z,3.17
2022-08-17T06:02:38.726Z,2.97
2022-08-17T06:05:32.140Z,3.13
2022-08-17T06:08:06.774Z,3.78
2022-08-17T06:10:46.924Z,2.85
2022-08-17T06:13:40.820Z,3.20
2022-08-17T06:16:31.173Z,3.15
2022-08-17T06:19:06.680Z,3.20
2022-08-17T06:21:36.005Z,3.10
2022-08-17T06:24:07.065Z,2.83
2022-08-17T06:26:43.308Z,4.27
2022-08-17T06:29:20.025Z,3.17
2022-08-17T06:31:47.068Z,3.00
2022-08-17T06:34:14.155Z,3.55
2022-08-17T06:37:05.307Z,3.40
2022-08-17T06:39:43.179Z,3.20
2022-08-17T06:42:54.943Z,3.30
2022-08-17T06:45:15.800Z,3.40
2022-08-17T06:47:52.940Z,3.33
2022-08-17T06:50:29.564Z,3.40
2022-08-17T06:52:59.552Z,3.60
2022-08-17T06:55:34.533Z,3.03
2022-08-17T06:58:15.923Z,2.97
2022-08-17T07:00:47.567Z,3.60
2022-08-17T07:03:24.056Z,3.10
2022-08-17T07:05:54.740Z,3.70
2022-08-17T07:08:32.028Z,3.28
2022-08-17T07:11:06.159Z,3.22
2022-08-17T07:13:41.959Z,3.60
2022-08-17T07:16:19.947Z,3.80
2022-08-17T07:18:49.791Z,3.70
2022-08-17T07:21:34.509Z,3.42
2022-08-17T07:24:29.390Z,3.83
2022-08-17T07:27:11.560Z,4.38
2022-08-17T07:29:42.860Z,4.47
2022-08-17T07:32:13.927Z,4.27
2022-08-17T07:35:17.659Z,4.63
2022-08-17T07:37:50.221Z,4.47
2022-08-17T07:40:24.304Z,5.38
2022-08-17T07:43:22.375Z,5.32
2022-08-17T07:46:03.942Z,5.27
2022-08-17T07:48:36.339Z,5.90
2022-08-17T07:51:15.171Z,5.40
2022-08-17T07:53:41.838Z,5.30
2022-08-17T07:56:08.699Z,6.13
2022-08-17T07:58:36.680Z,6.00
2022-08-17T08:01:07.652Z,5.90
2022-08-17T08:03:41.289Z,6.30
2022-08-17T08:06:19.891Z,6.35
2022-08-17T08:08:55.844Z,6.43
2022-08-17T08:11:31.214Z,6.40
2022-08-17T08:14:20.387Z,6.05
2022-08-17T08:16:57.904Z,6.53
2022-08-17T08:19:28.348Z,7.05
2022-08-17T08:22:05.398Z,6.63
2022-08-17T08:24:57.328Z,6.40
2022-08-17T08:27:45.762Z,6.40
2022-08-17T08:30:15.957Z,6.15
2022-08-17T08:33:01.482Z,6.57
2022-08-17T08:35:32.989Z,6.68
2022-08-17T08:38:08.762Z,6.47
2022-08-17T08:41:08.154Z,6.53
2022-08-17T08:43:52.796Z,6.65
2022-08-17T08:46:43.201Z,7.10
2022-08-17T08:50:01.867Z,6.78
2022-08-17T08:52:43.711Z,7.13
2022-08-17T08:55:18.330Z,6.78
2022-08-17T08:57:53.959Z,7.13
2022-08-17T09:00:23.318Z,6.85
2022-08-17T09:03:17.302Z,7.18
2022-08-17T09:05:59.317Z,6.57
2022-08-17T09:08:37.094Z,6.95
2022-08-17T09:11:06.325Z,6.85
2022-08-17T09:13:44.342Z,7.03
2022-08-17T09:16:17.925Z,7.35
2022-08-17T09:19:00.068Z,7.07
2022-08-17T09:21:37.383Z,7.25
2022-08-17T09:24:13.956Z,7.63
2022-08-17T09:26:53.298Z,7.45
2022-08-17T09:29:22.454Z,7.32
2022-08-17T09:31:55.347Z,6.83
2022-08-17T09:34:33.150Z,6.78
2022-08-17T09:37:11.021Z,7.43
2022-08-17T09:39:47.034Z,7.43
2022-08-17T09:42:21.349Z,6.85
2022-08-17T09:44:53.888Z,7.33
2022-08-17T09:47:29.796Z,7.68
2022-08-17T09:50:02.894Z,7.40
2022-08-17T09:52:31.156Z,7.65
2022-08-17T09:55:00.397Z,7.13
2022-08-17T09:57:42.116Z,7.40
2022-08-17T10:00:20.609Z,7.75
2022-08-17T10:03:20.164Z,7.60
2022-08-17T10:05:57.221Z,7.85
2022-08-17T10:08:36.630Z,7.63
2022-08-17T10:11:33.500Z,7.67
2022-08-17T10:14:36.742Z,8.05
2022-08-17T10:17:07.838Z,8.38
2022-08-17T10:19:39.525Z,8.30
2022-08-17T10:22:34.527Z,8.45
2022-08-17T10:25:22.331Z,8.33
2022-08-17T10:27:59.797Z,8.18
2022-08-17T10:30:32.712Z,8.50
2022-08-17T10:33:04.553Z,8.23
2022-08-17T10:35:41.410Z,8.10
2022-08-17T10:38:30.381Z,8.33
2022-08-17T10:41:04.527Z,8.25
2022-08-17T10:43:43.732Z,8.50
2022-08-17T10:46:46.337Z,8.90
2022-08-17T10:49:24.547Z,8.70
2022-08-17T10:51:52.985Z,9.17
2022-08-17T10:54:40.749Z,9.43
2022-08-17T10:57:40.226Z,8.65
2022-08-17T11:01:05.024Z,8.30
2022-08-17T11:03:32.004Z,8.98
2022-08-17T11:06:15.372Z,9.93
2022-08-17T11:09:07.348Z,10.07
2022-08-17T11:11:50.189Z,10.05
2022-08-17T11:14:28.517Z,10.02
2022-08-17T11:17:14.824Z,12.20
2022-08-17T11:20:18.205Z,11.57
2022-08-17T11:23:05.432Z,11.00
2022-08-17T11:25:36.261Z,11.07
2022-08-17T11:28:14.895Z,10.73
2022-08-17T11:30:49.062Z,11.50
2022-08-17T11:33:56.854Z,10.90
2022-08-17T11:36:40.248Z,11.15
2022-08-17T11:39:28.692Z,11.95
2022-08-17T11:42:08.731Z,12.35
2022-08-17T11:44:50.537Z,11.95
2022-08-17T11:47:25.460Z,14.07
2022-08-17T11:50:07.940Z,14.10
2022-08-17T11:52:41.204Z,13.40
2022-08-17T11:55:35.735Z,13.68
2022-08-17T11:58:25.696Z,14.68
2022-08-17T12:00:55.695Z,13.73
2022-08-17T12:03:53.808Z,15.70
2022-08-17T12:06:31.663Z,14.43
2022-08-17T12:09:06.086Z,14.20
2022-08-17T12:12:04.645Z,14.15
2022-08-17T12:14:51.702Z,16.23
2022-08-17T12:17:40.637Z,15.25
2022-08-17T12:20:14.661Z,14.73
2022-08-17T12:22:49.807Z,15.18
2022-08-17T12:25:22.396Z,14.98
2022-08-17T12:28:06.201Z,16.20
2022-08-17T12:30:35.857Z,15.15
2022-08-17T12:33:11.842Z,16.35
2022-08-17T12:35:38.501Z,15.18
2022-08-17T12:38:07.431Z,15.27
2022-08-17T12:40:55.505Z,16.47
2022-08-17T12:43:27.455Z,15.73
2022-08-17T12:45:57.529Z,17.45
2022-08-17T12:48:27.551Z,17.00
2022-08-17T12:51:01.595Z,17.20
2022-08-17T12:53:32.225Z,16.40
2022-08-17T12:56:00.346Z,17.30
2022-08-17T12:58:33.921Z,16.10
2022-08-17T13:01:03.724Z,17.17
2022-08-17T13:03:38.550Z,17.48
2022-08-17T13:06:07.643Z,16.57
2022-08-17T13:08:37.675Z,18.02
2022-08-17T13:11:07.142Z,18.23
2022-08-17T13:13:36.455Z,18.05
2022-08-17T13:16:05.964Z,19.90
2022-08-17T13:18:40.692Z,19.57
2022-08-17T13:21:16.680Z,20.92
2022-08-17T13:23:57.436Z,19.83
2022-08-17T13:26:29.068Z,18.67
2022-08-17T13:28:57.691Z,19.08
2022-08-17T13:31:42.872Z,20.30
2022-08-17T13:34:33.330Z,18.00
2022-08-17T13:37:29.697Z,19.10
2022-08-17T13:40:00.372Z,18.27
2022-08-17T13:42:52.759Z,18.75
2022-08-17T13:45:45.481Z,19.37
2022-08-17T13:48:23.356Z,18.27
2022-08-17T13:51:12.235Z,17.65
2022-08-17T13:53:56.695Z,16.98
2022-08-17T13:56:50.455Z,17.90
2022-08-17T13:59:52.651Z,17.30
2022-08-17T14:02:17.306Z,18.23
2022-08-17T14:04:46.772Z,17.13
2022-08-17T14:07:32.025Z,17.67
2022-08-17T14:10:04.677Z,17.77
2022-08-17T14:12:35.397Z,19.27
2022-08-17T14:15:02.463Z,20.45
2022-08-17T14:17:30.097Z,21.90
2022-08-17T14:19:58.954Z,22.27
2022-08-17T14:22:33.070Z,23.13
2022-08-17T14:25:04.680Z,22.30
2022-08-17T14:27:41.876Z,22.58
2022-08-17T14:30:21.962Z,25.17
2022-08-17T14:32:49.880Z,24.38
2022-08-17T14:35:17.577Z,24.27
2022-08-17T14:37:44.788Z,23.87
2022-08-17T14:40:13.567Z,25.88
2022-08-17T14:42:43.854Z,25.88
2022-08-17T14:45:29.830Z,24.98
2022-08-17T14:47:59.300Z,23.98
2022-08-17T14:50:25.930Z,24.77
2022-08-17T14:52:53.163Z,23.80
2022-08-17T14:55:35.992Z,24.40
2022-08-17T14:58:07.847Z,24.73
2022-08-17T15:00:39.942Z,24.05
2022-08-17T15:03:06.664Z,23.50
2022-08-17T15:05:36.246Z,21.67
2022-08-17T15:08:04.010Z,22.92
2022-08-17T15:10:31.116Z,24.75
2022-08-17T15:12:58.242Z,22.58
2022-08-17T15:15:26.433Z,23.60
2022-08-17T15:17:55.189Z,23.65
2022-08-17T15:20:26.444Z,22.05
2022-08-17T15:22:53.594Z,22.52
2022-08-17T15:25:20.426Z,24.10
2022-08-17T15:27:48.437Z,23.30
2022-08-17T15:30:16.123Z,22.13
2022-08-17T15:32:54.464Z,25.00
2022-08-17T15:35:26.930Z,23.23
2022-08-17T15:37:56.892Z,22.02
2022-08-17T15:40:23.757Z,23.13
2022-08-17T15:42:51.184Z,21.95
2022-08-17T15:45:22.969Z,20.13
2022-08-17T15:47:52.058Z,21.98
2022-08-17T15:50:19.007Z,20.67
2022-08-17T15:52:45.767Z,20.50
2022-08-17T15:55:14.630Z,20.52
2022-08-17T15:57:41.955Z,21.05
2022-08-17T16:00:12.075Z,21.35
2022-08-17T16:03:44.959Z,21.67
2022-08-17T16:05:31.720Z,21.60
2022-08-17T16:08:00.257Z,20.38
2022-08-17T16:10:35.271Z,20.42
2022-08-17T16:13:04.083Z,20.50
2022-08-17T16:15:31.376Z,22.23
2022-08-17T16:17:58.404Z,22.27
2022-08-17T16:20:26.073Z,22.52
2022-08-17T16:22:55.458Z,22.55
2022-08-17T16:25:38.409Z,21.50
2022-08-17T16:28:22.001Z,23.10
2022-08-17T16:30:49.292Z,22.53
2022-08-17T16:33:15.967Z,21.58
2022-08-17T16:35:43.991Z,19.38
2022-08-17T16:38:12.002Z,17.63
2022-08-17T16:40:40.946Z,17.55
2022-08-17T16:43:11.798Z,18.83
2022-08-17T16:45:38.520Z,18.98
2022-08-17T16:48:05.399Z,17.58
2022-08-17T16:50:32.646Z,17.80
2022-08-17T16:53:05.252Z,17.67
2022-08-17T16:55:33.946Z,19.97
2022-08-17T16:58:00.895Z,19.13
2022-08-17T17:00:27.528Z,19.65
2022-08-17T17:02:54.361Z,19.65
2022-08-17T17:05:44.590Z,20.65
2022-08-17T17:08:23.228Z,19.60
2022-08-17T17:10:54.445Z,18.95
2022-08-17T17:13:26.617Z,19.90
2022-08-17T17:15:58.581Z,18.58
2022-08-17T17:18:37.591Z,17.10
2022-08-17T17:21:12.973Z,16.47
2022-08-17T17:23:48.351Z,15.30
2022-08-17T17:26:37.897Z,16.20
2022-08-17T17:29:14.056Z,15.35
2022-08-17T17:31:47.161Z,12.52
2022-08-17T17:34:16.063Z,10.83
2022-08-17T17:36:47.333Z,10.02
2022-08-17T17:39:17.826Z,10.13
2022-08-17T17:41:48.963Z,9.77
2022-08-17T17:44:20.016Z,9.13
2022-08-17T17:46:53.134Z,9.10
2022-08-17T17:49:20.396Z,9.85
2022-08-17T17:52:10.816Z,9.02
2022-08-17T17:54:52.689Z,9.18
2022-08-17T17:57:29.728Z,9.95
2022-08-17T18:00:04.496Z,10.47
2022-08-17T18:02:45.278Z,9.38
2022-08-17T18:05:44.442Z,10.80
2022-08-17T18:08:31.956Z,11.07
2022-08-17T18:11:07.974Z,11.63
2022-08-17T18:13:53.237Z,12.53
2022-08-17T18:16:20.493Z,11.25
2022-08-17T18:18:49.058Z,10.95
2022-08-17T18:21:19.964Z,12.18
2022-08-17T18:23:52.531Z,11.88
2022-08-17T18:26:38.670Z,11.53
2022-08-17T18:29:21.388Z,11.38
2022-08-17T18:31:48.238Z,13.35
2022-08-17T18:34:43.684Z,14.23
2022-08-17T18:37:09.243Z,13.93
2022-08-17T18:39:36.093Z,13.07
2022-08-17T18:42:25.219Z,14.93
2022-08-17T18:44:55.365Z,14.05
2022-08-17T18:47:24.457Z,15.20
2022-08-17T18:49:54.209Z,15.20
2022-08-17T18:52:26.685Z,14.40
2022-08-17T18:55:07.173Z,14.50
2022-08-17T18:57:36.326Z,14.48
2022-08-17T19:00:12.057Z,15.82
2022-08-17T19:02:50.497Z,18.55
2022-08-17T19:05:33.251Z,16.33
2022-08-17T19:08:17.679Z,16.30
2022-08-17T19:10:45.867Z,17.65
2022-08-17T19:13:24.501Z,16.52
2022-08-17T19:16:12.325Z,16.67
2022-08-17T19:18:45.452Z,16.53
2022-08-17T19:21:18.253Z,17.95
2022-08-17T19:23:54.068Z,17.58
2022-08-17T19:26:54.550Z,17.35
2022-08-17T19:29:16.823Z,15.93
2022-08-17T19:31:50.286Z,16.70
2022-08-17T19:34:33.446Z,16.52
2022-08-17T19:37:06.509Z,16.15
2022-08-17T19:39:40.664Z,16.77
2022-08-17T19:42:14.956Z,17.17
2022-08-17T19:44:58.953Z,17.13
2022-08-17T19:47:54.307Z,17.42
2022-08-17T19:50:30.349Z,18.13
2022-08-17T19:53:17.107Z,17.65
2022-08-17T19:55:52.753Z,18.13
2022-08-17T19:58:35.356Z,17.23
2022-08-17T20:01:04.729Z,17.02
2022-08-17T20:03:38.353Z,17.85
2022-08-17T20:06:13.024Z,18.98
2022-08-17T20:08:47.725Z,17.02
2022-08-17T20:11:20.788Z,17.03
2022-08-17T20:13:52.281Z,15.90
2022-08-17T20:16:19.839Z,15.98
2022-08-17T20:18:55.217Z,16.42
2022-08-17T20:21:27.092Z,16.52
2022-08-17T20:24:01.769Z,17.67
2022-08-17T20:26:51.263Z,17.80
2022-08-17T20:29:39.814Z,17.42
2022-08-17T20:32:32.161Z,17.65
2022-08-17T20:35:28.529Z,18.80
2022-08-17T20:38:08.788Z,18.47
2022-08-17T20:40:38.552Z,17.15
2022-08-17T20:43:45.481Z,18.73
2022-08-17T20:46:41.369Z,17.63
2022-08-17T20:49:22.976Z,17.15
2022-08-17T20:52:01.808Z,17.90
2022-08-17T20:54:50.323Z,17.33
2022-08-17T20:57:45.170Z,17.55
2022-08-17T21:00:13.384Z,16.55
2022-08-17T21:02:41.133Z,17.13
2022-08-17T21:05:30.264Z,18.23
2022-08-17T21:08:00.843Z,18.50
2022-08-17T21:10:37.330Z,17.80
2022-08-17T21:13:46.546Z,19.35
2022-08-17T21:16:44.039Z,17.77
2022-08-17T21:19:37.588Z,18.43
2022-08-17T21:22:22.569Z,18.17
2022-08-17T21:24:57.368Z,19.33
2022-08-17T21:27:38.569Z,18.63
2022-08-17T21:30:22.012Z,18.80
2022-08-17T21:33:18.588Z,18.07
2022-08-17T21:35:50.864Z,18.90
2022-08-17T21:38:20.002Z,18.35
2022-08-17T21:40:49.447Z,19.70
2022-08-17T21:43:34.253Z,20.45
2022-08-17T21:46:04.536Z,19.63
2022-08-17T21:48:40.125Z,19.38
2022-08-17T21:51:09.348Z,19.90
2022-08-17T21:53:47.448Z,19.77
2022-08-17T21:56:24.664Z,21.38
2022-08-17T21:58:58.434Z,20.77
2022-08-17T22:01:27.929Z,20.70
2022-08-17T22:03:58.578Z,21.27
2022-08-17T22:06:27.736Z,21.55
2022-08-17T22:09:14.776Z,20.95
2022-08-17T22:11:51.984Z,21.23
2022-08-17T22:14:21.890Z,22.63
2022-08-17T22:17:04.644Z,22.30
2022-08-17T22:19:31.945Z,23.98
2022-08-17T22:22:03.484Z,25.55
2022-08-17T22:24:30.292Z,24.60
2022-08-17T22:27:04.416Z,24.10
2022-08-17T22:29:59.873Z,24.45
2022-08-17T22:32:32.297Z,23.27
2022-08-17T22:35:19.912Z,23.38
2022-08-17T22:37:47.066Z,24.70
2022-08-17T22:40:25.048Z,24.73
2022-08-17T22:42:51.983Z,24.05
2022-08-17T22:45:20.058Z,27.52
2022-08-17T22:47:47.199Z,27.10
2022-08-17T22:50:21.496Z,25.90
2022-08-17T22:52:57.447Z,25.88
2022-08-17T22:55:25.642Z,25.60
2022-08-17T22:57:52.792Z,26.40
2022-08-17T23:00:36.448Z,26.05
2022-08-17T23:03:10.603Z,27.23
2022-08-17T23:05:38.810Z,27.70
2022-08-17T23:08:05.507Z,27.10
2022-08-17T23:10:32.172Z,28.17
2022-08-17T23:12:59.554Z,26.30
2022-08-17T23:15:28.117Z,28.53
2022-08-17T23:17:56.452Z,28.63
2022-08-17T23:20:23.410Z,27.63
2022-08-17T23:22:51.904Z,28.33
2022-08-17T23:25:25.695Z,29.00
2022-08-17T23:27:52.650Z,28.57
2022-08-17T23:30:19.552Z,27.52
2022-08-17T23:32:53.336Z,28.48
2022-08-17T23:35:40.114Z,27.85
2022-08-17T23:38:08.771Z,26.75
2022-08-17T23:40:37.613Z,26.67
2022-08-17T23:43:12.921Z,28.92
2022-08-17T23:45:52.713Z,29.55
2022-08-17T23:48:28.533Z,32.05
2022-08-17T23:51:12.958Z,31.25
2022-08-17T23:53:42.725Z,29.17
2022-08-17T23:56:10.908Z,28.52
2022-08-17T23:58:39.260Z,28.15
